Time;durP1;ratioP1;P1;durP2;ratioP2;P2;SDS_P1;SDS_P2;PMS_P1;PMS_P2;Temp;Humidity;BMP_temperature;BMP_pressure;BME280_temperature;BME280_humidity;BME280_pressure;Samples;Min_cycle;Max_cycle;Signal;HPM_P1;HPM_P2
2022/06/16 00:02:13;;;;;;;;;8.75;8.75;;;;;24.14;56.46;99347.00;5013614;28;45441;-77
2022/06/16 00:04:38;;;;;;;;;11.50;11.00;;;;;24.11;56.77;99355.41;5013385;28;45516;-77
2022/06/16 00:07:04;;;;;;;;;15.00;12.00;;;;;24.08;56.57;99350.28;5013302;28;45648;-77
2022/06/16 00:09:29;;;;;;;;;10.75;9.75;;;;;24.06;57.02;99359.50;5007842;28;45468;-77
2022/06/16 00:11:55;;;;;;;;;12.50;10.75;;;;;24.05;56.32;99361.34;5014825;28;45512;-78
2022/06/16 00:14:23;;;;;;;;;11.00;10.00;;;;;24.05;56.66;99360.50;5006262;28;45514;-78
2022/06/16 00:16:49;;;;;;;;;10.50;7.50;;;;;24.03;56.68;99352.53;5013726;28;45650;-78
2022/06/16 00:19:15;;;;;;;;;10.50;8.75;;;;;24.00;56.92;99342.91;5013663;28;45348;-77
2022/06/16 00:21:41;;;;;;;;;8.50;8.25;;;;;23.98;56.68;99352.09;5014468;28;45711;-77
2022/06/16 00:24:07;;;;;;;;;9.50;9.50;;;;;23.95;56.38;99361.34;5013483;28;45697;-78
2022/06/16 00:26:32;;;;;;;;;11.00;9.00;;;;;23.90;56.38;99360.06;5012723;28;45505;-77
2022/06/16 00:28:58;;;;;;;;;8.00;8.00;;;;;23.86;55.88;99361.31;4990262;28;45788;-78
2022/06/16 00:31:24;;;;;;;;;8.25;8.25;;;;;23.81;56.35;99350.09;5011048;28;45602;-78
2022/06/16 00:33:50;;;;;;;;;12.50;11.00;;;;;23.79;56.75;99361.03;5014718;28;45469;-78
2022/06/16 00:36:16;;;;;;;;;8.50;8.00;;;;;23.80;57.29;99351.94;5014103;28;45419;-78
2022/06/16 00:38:41;;;;;;;;;10.50;9.00;;;;;23.81;56.60;99360.88;4995175;28;45549;-78
2022/06/16 00:41:08;;;;;;;;;9.00;7.00;;;;;23.81;56.76;99363.56;5014320;28;45481;-78
2022/06/16 00:43:34;;;;;;;;;9.40;9.20;;;;;23.75;56.18;99364.16;4997147;28;45435;-77
2022/06/16 00:46:21;;;;;;;;;10.50;10.00;;;;;23.65;57.08;99364.09;5003870;28;45345;-78
2022/06/16 00:48:55;;;;;;;;;9.00;9.00;;;;;23.57;56.82;99366.66;5009335;28;45414;-77
2022/06/16 00:51:39;;;;;;;;;3.00;3.00;;;;;23.49;57.55;99364.59;5014127;28;45568;-77
2022/06/16 00:54:13;;;;;;;;;10.00;8.25;;;;;23.46;57.62;99364.06;5014388;28;45429;-78
2022/06/16 00:56:38;;;;;;;;;12.25;8.75;;;;;23.41;57.34;99367.16;5014813;28;45406;-77
2022/06/16 00:59:06;;;;;;;;;11.50;9.75;;;;;23.37;58.23;99360.31;5014452;28;45549;-77
2022/06/16 01:01:34;;;;;;;;;9.00;8.50;;;;;23.32;58.14;99363.41;5005705;28;45549;-77
2022/06/16 01:06:44;;;;;;;;;9.50;8.75;;;;;23.27;58.81;99351.38;5014218;28;45453;-77
2022/06/16 01:09:15;;;;;;;;;10.75;9.75;;;;;23.26;58.76;99355.06;5007641;28;45545;-77
2022/06/16 01:15:00;;;;;;;;;10.00;9.20;;;;;23.35;58.40;99362.28;5009452;28;45524;-57
2022/06/16 01:17:39;;;;;;;;;10.75;9.50;;;;;23.39;58.37;99355.66;4994987;28;45646;-57
2022/06/16 01:20:26;;;;;;;;;12.00;10.25;;;;;23.43;58.73;99354.41;5015615;28;45627;-57
2022/06/16 01:23:06;;;;;;;;;10.75;10.50;;;;;23.47;58.20;99354.97;5014415;28;45569;-57
2022/06/16 01:25:31;;;;;;;;;11.25;11.00;;;;;23.49;58.60;99344.91;5016183;28;45374;-57
2022/06/16 01:28:14;;;;;;;;;12.25;10.75;;;;;23.50;58.60;99335.84;5015997;28;45419;-57
2022/06/16 01:30:56;;;;;;;;;11.25;9.50;;;;;23.48;57.93;99338.69;5016070;28;45501;-57
2022/06/16 01:33:40;;;;;;;;;12.00;12.00;;;;;23.41;58.46;99334.84;5016183;28;47315;-57
2022/06/16 01:36:18;;;;;;;;;10.50;9.75;;;;;23.34;58.65;99331.00;5014755;28;45526;-57
2022/06/16 01:39:01;;;;;;;;;10.00;10.00;;;;;23.27;58.61;99333.41;5010912;28;45458;-57
2022/06/16 01:41:48;;;;;;;;;9.50;9.50;;;;;23.23;59.03;99333.81;5015118;28;45450;-57
2022/06/16 01:44:22;;;;;;;;;9.75;9.00;;;;;23.17;58.70;99327.13;5012930;28;47461;-57
2022/06/16 01:46:53;;;;;;;;;11.00;11.00;;;;;23.12;58.28;99332.06;5013957;28;45486;-57
2022/06/16 01:49:24;;;;;;;;;11.00;10.75;;;;;23.05;57.78;99330.03;5015480;28;45427;-57
2022/06/16 01:51:56;;;;;;;;;13.25;10.25;;;;;23.02;58.43;99327.63;5015200;28;45528;-57
2022/06/16 01:54:27;;;;;;;;;12.50;11.00;;;;;23.00;57.92;99330.44;5012023;28;46280;-57
2022/06/16 01:56:58;;;;;;;;;13.00;11.00;;;;;22.97;57.86;99328.88;5014829;28;45536;-57
2022/06/16 01:59:43;;;;;;;;;10.50;8.75;;;;;23.00;57.48;99329.59;5014863;28;45556;-57
2022/06/16 02:02:15;;;;;;;;;8.75;8.75;;;;;23.00;57.81;99324.22;5014583;28;45453;-57
2022/06/16 02:04:53;;;;;;;;;10.75;7.00;;;;;22.97;57.67;99333.41;5014666;28;45709;-57
2022/06/16 02:07:25;;;;;;;;;9.20;8.80;;;;;22.93;57.51;99330.16;5016582;28;45432;-57
2022/06/16 02:09:54;;;;;;;;;11.25;8.25;;;;;22.94;57.15;99326.47;5015819;28;45468;-57
2022/06/16 02:15:40;;;;;;;;;8.25;8.25;;;;;22.96;57.36;99320.94;5015399;28;45598;-57
2022/06/16 02:18:10;;;;;;;;;8.00;8.00;;;;;22.95;57.09;99317.44;5015658;28;45539;-57
2022/06/16 02:21:10;;;;;;;;;9.00;9.00;;;;;22.94;56.93;99329.16;5015410;28;45461;-57
2022/06/16 02:23:35;;;;;;;;;9.50;8.50;;;;;22.97;56.63;99328.03;5006051;28;45367;-57
2022/06/16 02:26:01;;;;;;;;;13.00;9.25;;;;;23.00;56.42;99327.75;5015195;28;45605;-57
2022/06/16 02:28:27;;;;;;;;;8.00;8.00;;;;;23.05;57.09;99338.13;5016073;28;45448;-57
2022/06/16 02:31:03;;;;;;;;;8.25;8.00;;;;;23.08;56.87;99329.78;5015687;28;45536;-57
2022/06/16 02:33:51;;;;;;;;;10.50;9.50;;;;;23.12;56.25;99333.91;5015153;28;45445;-57
2022/06/16 02:36:20;;;;;;;;;10.00;8.75;;;;;23.12;56.42;99331.22;5014462;28;45488;-57
2022/06/16 02:39:04;;;;;;;;;10.20;8.80;;;;;23.12;56.72;99320.47;5015427;28;45468;-57
2022/06/16 02:41:45;;;;;;;;;11.50;11.25;;;;;23.13;56.41;99324.81;5014785;28;45495;-57
2022/06/16 02:44:39;;;;;;;;;10.75;8.50;;;;;23.13;56.21;99324.81;5008694;28;45443;-57
2022/06/16 02:47:17;;;;;;;;;10.75;9.00;;;;;23.13;56.71;99330.19;5012473;28;46172;-57
2022/06/16 02:50:21;;;;;;;;;10.25;10.00;;;;;23.11;56.66;99337.59;5015147;28;45415;-57
2022/06/16 02:52:54;;;;;;;;;9.00;9.00;;;;;23.08;56.22;99340.53;4964448;28;45470;-57
2022/06/16 02:55:29;;;;;;;;;11.75;10.75;;;;;23.08;56.48;99332.47;5014651;28;45626;-57
2022/06/16 02:57:58;;;;;;;;;12.50;9.75;;;;;23.09;56.47;99334.19;5013708;28;46088;-57
2022/06/16 03:00:36;;;;;;;;;9.80;7.40;;;;;23.09;56.41;99334.19;5014650;28;45475;-56
2022/06/16 03:03:25;;;;;;;;;11.25;10.25;;;;;23.07;56.28;99342.38;5015301;28;45553;-57
2022/06/16 03:05:56;;;;;;;;;11.50;9.25;;;;;23.05;56.24;99344.34;5009362;28;45552;-57
2022/06/16 03:08:23;;;;;;;;;10.75;9.50;;;;;23.05;56.35;99340.81;5010271;28;45517;-57
2022/06/16 03:10:52;;;;;;;;;8.60;8.60;;;;;23.08;56.27;99345.91;5014440;28;45517;-57
2022/06/16 03:13:24;;;;;;;;;10.00;9.00;;;;;23.08;56.24;99345.91;5015320;28;45378;-57
2022/06/16 03:15:50;;;;;;;;;10.00;10.00;;;;;23.09;56.33;99347.63;5011289;28;45616;-57
2022/06/16 03:18:18;;;;;;;;;12.25;9.00;;;;;23.09;56.24;99353.00;5014438;28;45477;-57
2022/06/16 03:20:43;;;;;;;;;11.00;11.00;;;;;23.09;56.89;99348.47;5013654;28;45484;-57
2022/06/16 03:23:09;;;;;;;;;9.75;8.00;;;;;;;;5013990;28;45419;-57
2022/06/16 03:25:35;;;;;;;;;10.00;9.25;;;;;23.11;57.03;99365.34;5013511;28;45322;-57
2022/06/16 03:28:01;;;;;;;;;12.50;11.00;;;;;23.08;58.00;99362.91;5014719;28;45417;-57
2022/06/16 03:30:26;;;;;;;;;13.75;11.75;;;;;23.02;59.15;99367.97;5014161;28;45514;-57
2022/06/16 03:32:52;;;;;;;;;13.00;12.00;;;;;22.95;59.67;99365.81;5014633;28;45482;-57
2022/06/16 03:35:17;;;;;;;;;13.50;12.00;;;;;22.94;59.68;99365.97;5013973;28;45450;-57
2022/06/16 03:37:42;;;;;;;;;15.75;13.50;;;;;22.91;60.12;99374.28;5014481;28;46598;-57
2022/06/16 03:40:13;;;;;;;;;12.25;11.25;;;;;22.88;60.19;99379.94;5013992;28;45489;-59
2022/06/16 03:42:39;;;;;;;;;14.00;12.00;;;;;22.85;60.46;99377.50;5013798;28;45370;-56
2022/06/16 03:45:05;;;;;;;;;13.50;13.00;;;;;22.77;60.46;99377.31;4996641;28;45535;-59
2022/06/16 03:47:31;;;;;;;;;11.75;11.00;;;;;22.69;60.73;99382.47;5013900;28;46454;-59
2022/06/16 03:49:56;;;;;;;;;14.25;12.50;;;;;22.63;60.44;99387.38;5014127;28;45473;-58
2022/06/16 03:52:22;;;;;;;;;14.25;11.75;;;;;22.60;61.25;99393.03;5013164;28;45962;-59
2022/06/16 03:54:47;;;;;;;;;7.50;7.00;;;;;22.57;60.99;99385.22;5013762;28;45524;-59
2022/06/16 03:57:13;;;;;;;;;17.75;15.00;;;;;22.56;61.14;99388.88;5012257;28;45483;-58
2022/06/16 03:59:39;;;;;;;;;12.75;11.75;;;;;22.51;61.41;99385.72;5012675;28;45589;-58
2022/06/16 04:02:04;;;;;;;;;14.50;13.00;;;;;22.45;61.08;99393.47;5013993;28;45485;-58
2022/06/16 04:04:30;;;;;;;;;14.25;12.50;;;;;22.44;61.74;99395.31;5014111;28;45491;-59
2022/06/16 04:06:55;;;;;;;;;12.25;12.25;;;;;22.45;61.62;99397.03;5013286;28;46277;-58
2022/06/16 04:09:21;;;;;;;;;9.75;8.50;;;;;22.46;61.59;99405.91;5009810;28;45649;-59
2022/06/16 04:11:46;;;;;;;;;14.50;12.00;;;;;22.48;61.72;99398.56;5013477;28;45595;-58
2022/06/16 04:14:14;;;;;;;;;11.00;11.00;;;;;22.49;62.07;99401.13;5012745;28;45451;-58
2022/06/16 04:16:46;;;;;;;;;16.75;15.75;;;;;22.54;61.76;99408.81;5012083;28;45454;-58
2022/06/16 04:19:15;;;;;;;;;15.25;13.75;;;;;22.57;61.63;99401.34;5002069;28;45462;-59
2022/06/16 04:21:42;;;;;;;;;15.50;14.50;;;;;22.59;61.62;99404.75;5012496;28;45569;-58
2022/06/16 04:24:08;;;;;;;;;15.25;14.00;;;;;22.61;61.30;99412.69;5012583;28;45461;-58
2022/06/16 04:26:37;;;;;;;;;21.50;18.00;;;;;22.62;61.32;99409.84;5012080;28;45521;-59
2022/06/16 04:29:03;;;;;;;;;13.75;13.75;;;;;22.67;62.04;99409.47;5013902;28;45484;-58
2022/06/16 04:31:29;;;;;;;;;16.00;15.50;;;;;22.69;61.92;99415.56;5012425;28;45429;-58
2022/06/16 04:33:54;;;;;;;;;15.50;15.50;;;;;22.70;61.88;99419.09;5013714;28;45375;-58
2022/06/16 04:36:19;;;;;;;;;15.00;13.50;;;;;22.71;61.65;99413.59;5012894;28;45579;-58
2022/06/16 04:38:48;;;;;;;;;16.75;14.00;;;;;22.73;62.10;99419.69;4995575;28;45898;-58
2022/06/16 04:41:14;;;;;;;;;16.25;15.25;;;;;22.76;61.81;99415.91;5010259;28;45505;-58
2022/06/16 04:43:39;;;;;;;;;15.25;15.25;;;;;22.78;61.62;99422.91;5013214;28;45515;-58
2022/06/16 04:46:05;;;;;;;;;12.25;11.75;;;;;22.81;62.07;99422.59;5011159;28;46215;-58
2022/06/16 04:48:32;;;;;;;;;14.25;14.25;;;;;22.83;61.69;99426.03;5012926;28;45496;-58
2022/06/16 04:50:57;;;;;;;;;16.50;13.00;;;;;22.85;61.13;99431.25;5013240;28;45419;-58
2022/06/16 04:53:23;;;;;;;;;16.25;14.50;;;;;22.86;61.19;99428.44;5013386;28;45419;-58
2022/06/16 04:55:56;;;;;;;;;13.75;13.00;;;;;22.89;61.34;99428.19;5012877;28;45469;-58
2022/06/16 04:58:22;;;;;;;;;15.75;13.75;;;;;22.92;60.82;99424.38;5011932;28;45478;-58
2022/06/16 05:00:49;;;;;;;;;16.25;16.25;;;;;22.92;61.12;99427.94;5012605;28;45469;-59
2022/06/16 05:03:17;;;;;;;;;16.75;15.75;;;;;22.92;61.72;99432.47;5011956;28;45378;-58
2022/06/16 05:05:43;;;;;;;;;14.75;14.25;;;;;22.90;61.52;99429.91;5011784;28;45645;-59
2022/06/16 05:08:09;;;;;;;;;16.75;16.00;;;;;22.92;60.75;99443.22;4998273;28;45442;-59
2022/06/16 05:10:34;;;;;;;;;14.75;12.50;;;;;22.95;60.79;99437.56;5012202;28;45548;-59
2022/06/16 05:13:00;;;;;;;;;13.25;11.50;;;;;22.98;58.97;99438.13;5011442;28;45466;-59
2022/06/16 05:15:25;;;;;;;;;10.75;10.75;;;;;23.02;57.39;99441.44;5011853;28;46188;-58
2022/06/16 05:17:50;;;;;;;;;13.00;9.75;;;;;23.02;57.41;99440.56;5012567;28;45453;-59
2022/06/16 05:20:16;;;;;;;;;13.25;10.75;;;;;23.01;56.67;99436.19;5012339;28;45535;-58
2022/06/16 05:22:41;;;;;;;;;15.00;10.75;;;;;23.01;56.75;99445.09;5011224;28;45571;-59
2022/06/16 05:25:07;;;;;;;;;10.75;10.75;;;;;23.04;56.77;99447.53;5012187;28;45506;-59
2022/06/16 05:27:33;;;;;;;;;10.40;9.80;;;;;23.08;56.35;99451.66;5011308;28;45381;-59
2022/06/16 05:29:58;;;;;;;;;10.75;9.25;;;;;23.11;55.98;99454.09;5010168;28;45459;-59
2022/06/16 05:32:24;;;;;;;;;12.00;11.25;;;;;23.14;55.83;99456.50;5010344;28;45649;-58
2022/06/16 05:34:49;;;;;;;;;12.75;11.00;;;;;23.18;55.95;99454.41;5009557;28;46639;-58
2022/06/16 05:37:17;;;;;;;;;13.00;11.25;;;;;23.20;55.87;99453.28;5012102;28;45404;-58
2022/06/16 05:39:43;;;;;;;;;11.75;9.75;;;;;23.25;55.89;99467.19;5009571;28;45459;-58
2022/06/16 05:42:08;;;;;;;;;14.00;12.00;;;;;23.27;56.13;99465.22;5011656;28;45513;-59
2022/06/16 05:44:34;;;;;;;;;13.75;12.00;;;;;23.30;55.83;99475.69;5003643;28;45495;-59
2022/06/16 05:47:00;;;;;;;;;12.50;11.50;;;;;23.33;55.55;99479.97;5006627;28;45550;-58
2022/06/16 05:49:26;;;;;;;;;12.50;12.00;;;;;23.36;55.42;99489.63;5006879;28;45604;-60
2022/06/16 05:51:51;;;;;;;;;14.00;10.50;;;;;23.37;55.52;99483.25;5007336;28;45477;-60
2022/06/16 05:54:17;;;;;;;;;11.50;11.50;;;;;23.40;56.28;99488.38;5004489;28;46249;-60
2022/06/16 05:56:42;;;;;;;;;12.25;12.25;;;;;23.42;55.78;99483.72;5006770;28;45458;-60
2022/06/16 05:59:08;;;;;;;;;15.25;13.50;;;;;23.42;55.48;99484.56;5010659;28;45553;-61
2022/06/16 06:01:33;;;;;;;;;15.25;12.00;;;;;23.48;55.85;99488.53;5010095;28;45692;-60
2022/06/16 06:03:59;;;;;;;;;17.00;14.00;;;;;23.53;56.02;99491.72;5010720;28;45437;-60
2022/06/16 06:06:24;;;;;;;;;15.50;13.25;;;;;23.59;55.98;99485.81;5009215;28;45512;-60
2022/06/16 06:17:12;;;;;;;;;21.25;20.00;;;;;23.81;57.13;99476.66;5007005;28;45443;-60
2022/06/16 06:19:38;;;;;;;;;17.50;15.50;;;;;23.84;57.22;99479.94;5008226;28;45482;-60
2022/06/16 06:22:13;;;;;;;;;19.75;16.50;;;;;23.89;57.62;99476.84;5010371;28;45419;-61
2022/06/16 06:24:43;;;;;;;;;16.25;16.25;;;;;23.93;57.84;99481.81;5007732;28;46505;-60
2022/06/16 06:27:20;;;;;;;;;17.50;16.50;;;;;23.98;57.94;99476.00;5010003;28;45447;-60
2022/06/16 06:29:48;;;;;;;;;13.25;13.25;;;;;24.01;57.68;99478.44;5009044;28;45678;-60
2022/06/16 06:32:16;;;;;;;;;16.50;16.25;;;;;24.06;57.53;99478.03;5009558;28;45469;-61
2022/06/16 06:34:42;;;;;;;;;21.50;17.00;;;;;24.10;57.63;99474.06;5007731;28;46382;-61
2022/06/16 06:37:07;;;;;;;;;17.25;16.25;;;;;24.14;57.90;99476.31;5007746;28;45522;-61
2022/06/16 06:39:33;;;;;;;;;20.25;19.00;;;;;24.19;57.88;99479.47;5008399;28;45564;-60
2022/06/16 06:42:01;;;;;;;;;21.25;17.50;;;;;24.24;57.25;99471.84;5008020;28;45786;-60
2022/06/16 06:44:26;;;;;;;;;19.25;14.50;;;;;24.29;57.12;99463.38;5007843;28;46653;-61
2022/06/16 06:46:52;;;;;;;;;16.75;16.00;;;;;24.32;57.66;99463.06;5008363;28;45541;-60
2022/06/16 06:49:17;;;;;;;;;20.50;17.00;;;;;24.37;57.08;99468.03;5007558;28;45552;-60
2022/06/16 06:51:42;;;;;;;;;19.50;16.00;;;;;24.42;56.75;99460.38;5006483;28;45442;-60
2022/06/16 06:54:08;;;;;;;;;21.50;16.75;;;;;24.48;56.75;99460.66;5007841;28;46060;-60
2022/06/16 06:56:34;;;;;;;;;19.75;17.00;;;;;24.54;56.64;99460.09;5008807;28;45506;-60
2022/06/16 06:59:04;;;;;;;;;18.00;16.50;;;;;24.60;56.45;99464.94;5009606;28;45521;-60
2022/06/16 07:01:30;;;;;;;;;17.25;15.50;;;;;24.66;56.57;99464.34;5007929;28;45732;-60
2022/06/16 07:03:56;;;;;;;;;18.75;18.50;;;;;24.72;56.43;99462.94;5009016;28;47027;-61
2022/06/16 07:06:21;;;;;;;;;19.00;17.75;;;;;24.80;56.32;99464.94;5009202;28;45534;-60
2022/06/16 07:08:47;;;;;;;;;18.00;18.00;;;;;24.84;56.74;99460.94;5007782;28;45621;-60
2022/06/16 07:11:12;;;;;;;;;20.75;17.50;;;;;24.90;56.37;99463.06;4995707;28;45528;-60
2022/06/16 07:13:38;;;;;;;;;22.00;20.00;;;;;24.93;56.04;99463.63;5003966;28;46400;-61
2022/06/16 07:16:04;;;;;;;;;26.00;21.75;;;;;24.99;56.63;99467.63;5008119;28;45588;-60
2022/06/16 07:18:30;;;;;;;;;22.50;20.50;;;;;25.08;56.05;99457.81;5009700;28;45521;-60
2022/06/16 07:20:55;;;;;;;;;17.75;17.75;;;;;25.14;55.87;99465.31;5006200;28;45405;-60
2022/06/16 07:23:21;;;;;;;;;20.00;18.25;;;;;25.21;55.78;99461.03;4989819;28;47211;-60
2022/06/16 07:25:48;;;;;;;;;18.25;17.00;;;;;25.27;55.30;99460.47;5008188;28;45379;-60
2022/06/16 07:28:14;;;;;;;;;19.50;16.75;;;;;25.32;55.18;99463.56;5009690;28;45541;-60
2022/06/16 07:30:40;;;;;;;;;18.50;16.25;;;;;25.36;54.80;99456.88;5008340;28;45975;-61
2022/06/16 07:33:06;;;;;;;;;14.75;12.50;;;;;25.42;54.47;99458.16;5008876;28;45642;-60
2022/06/16 07:35:31;;;;;;;;;16.00;16.00;;;;;25.47;53.82;99458.56;5012887;28;45394;-60
2022/06/16 07:37:57;;;;;;;;;19.25;17.50;;;;;25.53;53.76;99452.56;5013500;28;45470;-60
2022/06/16 07:40:22;;;;;;;;;18.75;16.75;;;;;25.58;53.49;99451.13;5013476;28;45599;-60
2022/06/16 07:42:49;;;;;;;;;15.75;14.50;;;;;25.63;53.75;99448.88;5011771;28;46795;-60
2022/06/16 07:45:14;;;;;;;;;18.75;17.50;;;;;25.66;53.12;99440.44;5013557;28;45460;-60
2022/06/16 07:47:41;;;;;;;;;18.25;16.50;;;;;25.71;53.03;99445.41;4995969;28;45364;-61
2022/06/16 07:50:08;;;;;;;;;16.75;16.75;;;;;25.78;52.61;99441.13;5013403;28;45454;-60
2022/06/16 07:52:37;;;;;;;;;20.00;16.00;;;;;25.85;52.03;99444.91;5013591;28;45601;-60
2022/06/16 07:55:04;;;;;;;;;17.25;16.25;;;;;25.93;51.71;99449.56;5013145;28;45382;-60
2022/06/16 07:57:32;;;;;;;;;15.25;14.00;;;;;26.01;51.84;99438.84;5012998;28;45408;-61
2022/06/16 07:59:58;;;;;;;;;15.50;14.25;;;;;26.08;51.23;99434.53;5013273;28;45553;-60
2022/06/16 08:02:25;;;;;;;;;18.25;16.50;;;;;26.15;50.79;99437.44;5013794;28;45599;-60
2022/06/16 08:04:50;;;;;;;;;18.25;15.75;;;;;26.21;50.72;99435.00;5013480;28;45495;-61
2022/06/16 08:07:17;;;;;;;;;16.25;14.50;;;;;26.27;50.83;99439.81;5010700;28;45337;-60
2022/06/16 08:09:42;;;;;;;;;16.25;16.25;;;;;26.34;50.65;99435.50;5006809;28;45558;-61
2022/06/16 08:12:09;;;;;;;;;18.50;16.00;;;;;26.41;50.50;99438.44;5014346;28;45405;-60
2022/06/16 08:14:38;;;;;;;;;16.50;15.50;;;;;26.49;50.62;99424.97;5013847;28;45398;-61
2022/06/16 08:17:08;;;;;;;;;19.25;17.00;;;;;26.58;50.25;99431.34;5013803;28;45458;-61
2022/06/16 08:19:34;;;;;;;;;18.00;15.00;;;;;26.68;49.20;99432.94;5013629;28;45299;-60
2022/06/16 08:21:59;;;;;;;;;16.75;14.25;;;;;26.75;49.47;99436.72;5012034;28;46435;-60
2022/06/16 08:24:25;;;;;;;;;18.00;14.25;;;;;26.83;48.97;99444.03;5014035;28;45567;-61
2022/06/16 08:26:51;;;;;;;;;16.25;14.00;;;;;26.90;48.89;99436.16;5014489;28;45431;-61
2022/06/16 08:29:18;;;;;;;;;17.00;15.75;;;;;26.95;48.89;99442.84;5013678;28;45457;-61
2022/06/16 08:31:43;;;;;;;;;14.75;14.75;;;;;27.03;48.39;99445.59;4995487;28;48135;-61
2022/06/16 08:34:09;;;;;;;;;13.00;13.00;;;;;27.15;48.18;99445.34;5013478;28;45518;-60
2022/06/16 08:36:35;;;;;;;;;12.00;11.00;;;;;27.22;48.44;99439.13;5012809;28;45443;-60
2022/06/16 08:39:01;;;;;;;;;15.00;15.00;;;;;27.27;47.61;99444.91;5013451;28;45568;-61
2022/06/16 08:41:32;;;;;;;;;19.50;16.25;;;;;27.36;48.23;99454.78;5012532;28;46255;-60
2022/06/16 08:44:05;;;;;;;;;20.00;17.25;;;;;27.41;47.95;99451.59;4995023;28;45796;-60
2022/06/16 08:46:40;;;;;;;;;18.50;16.25;;;;;27.47;47.67;99456.38;5012915;28;45472;-60
2022/06/16 08:49:30;;;;;;;;;16.50;15.50;;;;;27.55;47.38;99458.25;5012073;28;45506;-61
2022/06/16 08:52:21;;;;;;;;;15.50;15.50;;;;;27.61;46.50;99457.66;5006723;28;46604;-61
2022/06/16 08:54:47;;;;;;;;;13.00;13.00;;;;;27.66;46.85;99448.00;5004504;28;45600;-61
2022/06/16 08:57:16;;;;;;;;;17.75;15.25;;;;;27.72;46.30;99458.22;5014018;28;45386;-61
2022/06/16 08:59:47;;;;;;;;;15.50;15.00;;;;;27.78;45.76;99454.00;5013218;28;45370;-61
2022/06/16 09:02:47;;;;;;;;;18.50;16.75;;;;;27.85;45.48;99454.19;5011251;28;46157;-61
2022/06/16 09:05:22;;;;;;;;;20.25;18.50;;;;;27.92;45.56;99455.25;5013079;28;45347;-61
2022/06/16 09:08:09;;;;;;;;;10.75;10.75;;;;;27.99;44.63;99456.28;5005366;28;45561;-61
2022/06/16 09:10:49;;;;;;;;;16.75;16.50;;;;;28.04;44.68;99459.34;5011443;28;45320;-61
2022/06/16 09:13:40;;;;;;;;;19.25;17.00;;;;;28.11;43.74;99446.84;4992076;28;45418;-60
2022/06/16 09:16:11;;;;;;;;;15.80;15.00;;;;;28.16;43.92;99449.88;5008590;28;45502;-60
2022/06/16 09:18:42;;;;;;;;;14.50;13.00;;;;;28.22;43.79;99443.84;5013285;28;45505;-61
2022/06/16 09:21:34;;;;;;;;;15.00;12.25;;;;;28.29;43.82;99436.75;5012219;28;45467;-61
2022/06/16 09:24:54;;;;;;;;;15.00;15.00;;;;;28.35;43.86;99444.19;5013689;28;45509;-61
2022/06/16 09:27:51;;;;;;;;;18.75;15.25;;;;;28.46;43.57;99443.91;4951949;28;45514;-61
2022/06/16 09:30:25;;;;;;;;;13.00;12.50;;;;;28.56;43.25;99442.88;5002354;28;45478;-61
2022/06/16 09:32:57;;;;;;;;;17.25;15.75;;;;;28.65;43.26;99442.72;5013935;28;45490;-61
2022/06/16 09:35:43;;;;;;;;;12.50;11.50;;;;;28.76;42.96;99444.25;5014759;28;45617;-61
2022/06/16 09:38:18;;;;;;;;;11.00;11.00;;;;;28.84;42.48;99446.97;5016491;28;45480;-61
2022/06/16 09:42:32;;;;;;;;;16.00;14.75;;;;;28.92;43.08;99441.56;5015901;28;45508;-61
2022/06/16 09:43:55;;;;;;;;;15.00;14.00;;;;;29.02;42.50;99444.09;5011930;28;45323;-61
2022/06/16 09:46:30;;;;;;;;;16.50;14.00;;;;;29.08;42.24;99437.97;5015749;28;46588;-60
2022/06/16 09:49:06;;;;;;;;;16.00;15.60;;;;;29.13;42.56;99444.59;5016758;28;45303;-61
2022/06/16 09:51:40;;;;;;;;;19.50;15.75;;;;;29.21;41.95;99432.84;5016124;28;45585;-61
2022/06/16 09:54:33;;;;;;;;;17.25;15.75;;;;;29.31;41.82;99440.84;5016463;28;45577;-61
2022/06/16 09:57:07;;;;;;;;;13.75;11.50;;;;;29.38;41.37;99434.50;5015810;28;46283;-61
2022/06/16 09:59:45;;;;;;;;;15.25;14.25;;;;;29.43;41.20;99432.16;5015769;28;45497;-61
2022/06/16 10:02:26;;;;;;;;;15.25;13.75;;;;;29.51;40.74;99426.69;5015160;28;45395;-61
2022/06/16 10:04:54;;;;;;;;;16.75;13.25;;;;;29.59;41.16;99427.69;5014217;28;45442;-61
2022/06/16 10:07:29;;;;;;;;;12.75;12.75;;;;;29.65;40.62;99427.00;5014539;28;45585;-61
2022/06/16 10:10:09;;;;;;;;;11.80;11.80;;;;;29.67;40.21;99424.94;5015540;28;45465;-61
2022/06/16 10:12:56;;;;;;;;;12.25;12.00;;;;;29.73;39.93;99407.94;4996868;28;45583;-61
2022/06/16 10:15:47;;;;;;;;;15.00;14.75;;;;;29.80;40.07;99412.50;5015750;28;45475;-61
2022/06/16 10:18:14;;;;;;;;;14.50;13.00;;;;;29.93;39.80;99416.50;5014922;28;45649;-61
2022/06/16 10:20:39;;;;;;;;;16.75;14.75;;;;;30.05;40.50;99401.50;5015000;28;45501;-61
2022/06/16 10:23:15;;;;;;;;;13.50;12.50;;;;;30.13;40.25;99398.75;5015781;28;45520;-61
2022/06/16 10:25:47;;;;;;;;;15.50;14.50;;;;;30.23;40.03;99402.06;5015773;28;45488;-61
2022/06/16 10:28:20;;;;;;;;;16.25;14.50;;;;;30.34;39.95;99400.78;5015840;28;45495;-61
2022/06/16 10:30:46;;;;;;;;;19.50;16.25;;;;;30.44;40.52;99394.09;5015447;28;45403;-62
2022/06/16 10:33:24;;;;;;;;;16.50;15.50;;;;;30.56;40.15;99404.59;5015534;28;45519;-60
2022/06/16 10:35:51;;;;;;;;;14.75;13.00;;;;;30.66;39.79;99400.59;5015486;28;45533;-59
2022/06/16 10:38:28;;;;;;;;;15.25;13.00;;;;;30.77;38.99;99400.16;5015728;28;46296;-60
2022/06/16 10:40:54;;;;;;;;;12.00;12.00;;;;;30.83;39.78;99406.75;5015178;28;45441;-61
2022/06/16 10:43:20;;;;;;;;;14.75;14.75;;;;;30.89;39.67;99404.13;5015821;28;45351;-60
2022/06/16 10:45:59;;;;;;;;;9.50;9.50;;;;;30.95;38.81;99407.97;5014224;28;45370;-60
2022/06/16 10:48:35;;;;;;;;;13.75;13.00;;;;;30.98;38.69;99412.22;5015868;28;46302;-59
2022/06/16 10:51:22;;;;;;;;;15.00;13.00;;;;;31.02;39.52;99414.38;5015453;28;45398;-59
2022/06/16 10:54:02;;;;;;;;;13.25;12.75;;;;;31.05;38.95;99415.88;5011457;28;45461;-60
2022/06/16 10:56:28;;;;;;;;;14.00;12.00;;;;;31.08;38.45;99410.91;5014137;28;45543;-60
2022/06/16 10:58:56;;;;;;;;;12.75;12.75;;;;;31.14;37.92;99398.47;5014763;28;45441;-60
2022/06/16 11:01:25;;;;;;;;;9.75;9.75;;;;;31.19;38.59;99404.19;5013089;28;45422;-60
2022/06/16 11:04:01;;;;;;;;;14.00;14.00;;;;;31.25;37.79;99397.16;5015247;28;45482;-59
2022/06/16 11:06:27;;;;;;;;;16.00;13.50;;;;;31.33;38.54;99399.81;5014883;28;45409;-59
2022/06/16 11:09:00;;;;;;;;;13.50;12.25;;;;;31.40;38.26;99389.81;5008859;28;45459;-60
2022/06/16 11:11:40;;;;;;;;;48.33;40.67;;;;;31.49;38.25;99385.97;5013748;28;45299;-60
2022/06/16 11:14:12;;;;;;;;;12.25;11.25;;;;;31.60;37.98;99385.50;5014903;28;45559;-60
2022/06/16 11:16:47;;;;;;;;;14.75;13.00;;;;;31.68;37.60;99374.50;5013488;28;45617;-60
2022/06/16 11:19:25;;;;;;;;;13.25;12.25;;;;;31.75;36.76;99380.88;5014504;28;45765;-61
2022/06/16 11:21:51;;;;;;;;;12.75;12.00;;;;;31.84;36.93;99379.72;5014129;28;45463;-61
2022/06/16 11:24:30;;;;;;;;;17.25;15.00;;;;;31.95;36.68;99372.94;5013258;28;45495;-61
2022/06/16 11:27:12;;;;;;;;;11.75;11.75;;;;;32.08;36.67;99367.63;5013417;28;45403;-61
2022/06/16 11:29:38;;;;;;;;;10.25;10.25;;;;;32.16;36.61;99367.53;5012118;28;45521;-61
2022/06/16 11:32:28;;;;;;;;;14.25;13.00;;;;;32.22;35.57;99366.75;5014131;28;45450;-61
2022/06/16 11:34:54;;;;;;;;;16.50;15.75;;;;;32.29;36.12;99377.75;5008577;28;45545;-61
2022/06/16 11:37:39;;;;;;;;;11.75;9.75;;;;;32.36;34.81;99383.25;5014412;28;45564;-61
2022/06/16 11:40:23;;;;;;;;;15.25;12.50;;;;;32.36;33.67;99384.09;5014069;28;46544;-60
2022/06/16 11:43:13;;;;;;;;;17.25;14.00;;;;;32.35;33.20;99378.84;5007681;28;45473;-61
2022/06/16 11:45:44;;;;;;;;;13.75;11.50;;;;;32.33;33.71;99365.41;5011372;28;45459;-61
2022/06/16 11:48:35;;;;;;;;;11.50;11.50;;;;;32.38;32.16;99370.28;5013334;28;45443;-61
2022/06/16 11:51:43;;;;;;;;;12.00;11.50;;;;;32.41;32.50;99365.28;5013649;28;45478;-60
2022/06/16 11:54:24;;;;;;;;;11.50;11.50;;;;;32.51;32.56;99357.59;4914693;28;45486;-61
2022/06/16 11:57:22;;;;;;;;;11.50;9.50;;;;;32.54;30.86;99353.63;4912784;28;45689;-61